Time;durP1;ratioP1;P1;durP2;ratioP2;P2;SDS_P1;SDS_P2;PMS_P1;PMS_P2;Temp;Humidity;BMP_temperature;BMP_pressure;BME280_temperature;BME280_humidity;BME280_pressure;Samples;Min_cycle;Max_cycle;Signal;HPM_P1;HPM_P2
2021/11/29 00:01:51;;;;;;;15.65;11.65;;;1.80;99.90;;;;;;5012951;28;20061;-64
2021/11/29 00:04:17;;;;;;;16.20;11.50;;;;;;;;;;4994673;28;20037;-63
2021/11/29 00:06:42;;;;;;;14.75;11.23;;;1.80;99.90;;;;;;5015212;28;20145;-64
2021/11/29 00:09:08;;;;;;;15.93;11.35;;;1.80;99.90;;;;;;5006848;28;20058;-64
2021/11/29 00:11:34;;;;;;;15.27;12.15;;;1.90;99.90;;;;;;4992625;28;20029;-64
2021/11/29 00:14:00;;;;;;;14.57;11.02;;;2.50;99.90;;;;;;4992143;28;20034;-64
2021/11/29 00:16:26;;;;;;;17.08;12.48;;;2.60;99.90;;;;;;5004371;28;20040;-64
2021/11/29 00:18:52;;;;;;;17.98;12.07;;;1.70;99.90;;;;;;5030811;28;20029;-63
2021/11/29 00:21:17;;;;;;;15.80;11.80;;;2.60;99.90;;;;;;5018014;28;20030;-63
2021/11/29 00:23:45;;;;;;;16.65;12.38;;;2.40;99.90;;;;;;5011489;28;20029;-64
2021/11/29 00:26:14;;;;;;;18.60;12.80;;;2.50;99.90;;;;;;5010739;28;20037;-64
2021/11/29 00:28:42;;;;;;;15.70;12.02;;;2.60;99.90;;;;;;5013327;28;20053;-64
2021/11/29 00:31:07;;;;;;;17.83;12.82;;;1.90;99.90;;;;;;4997784;28;20493;-64
2021/11/29 00:33:33;;;;;;;18.00;11.90;;;2.30;99.90;;;;;;5011292;28;20032;-64
2021/11/29 00:35:58;;;;;;;16.42;11.85;;;2.10;99.90;;;;;;5017197;28;20553;-64
2021/11/29 00:38:24;;;;;;;17.08;12.55;;;2.40;99.90;;;;;;5018423;28;20030;-63
2021/11/29 00:40:50;;;;;;;17.50;12.38;;;2.10;99.90;;;;;;5015484;28;20033;-62
2021/11/29 00:43:16;;;;;;;21.25;13.63;;;2.20;99.90;;;;;;5015257;28;20026;-63
2021/11/29 00:45:41;;;;;;;14.88;11.50;;;2.00;99.90;;;;;;5010355;28;20416;-64
2021/11/29 00:48:07;;;;;;;19.35;12.38;;;2.20;99.90;;;;;;5030387;28;20071;-62
2021/11/29 00:50:37;;;;;;;18.02;12.43;;;2.20;99.90;;;;;;5034660;28;20040;-62
2021/11/29 00:53:06;;;;;;;15.57;11.82;;;2.30;99.90;;;;;;5013946;28;20022;-63
2021/11/29 00:55:32;;;;;;;19.23;12.32;;;2.10;99.90;;;;;;5013583;28;20032;-64
2021/11/29 00:57:58;;;;;;;16.00;11.18;;;2.80;99.90;;;;;;5013766;28;20030;-62
2021/11/29 01:00:24;;;;;;;14.45;10.93;;;1.90;99.90;;;;;;5014307;28;20068;-65
2021/11/29 01:02:50;;;;;;;14.32;10.90;;;2.20;99.90;;;;;;5014432;28;20030;-62
2021/11/29 01:05:16;;;;;;;14.63;11.35;;;2.50;99.90;;;;;;5012880;28;20088;-62
2021/11/29 01:07:42;;;;;;;12.48;10.38;;;2.80;99.90;;;;;;5014257;28;20030;-63
2021/11/29 01:10:10;;;;;;;13.40;10.43;;;2.70;99.90;;;;;;5009873;28;20076;-63
2021/11/29 01:12:36;;;;;;;14.73;10.20;;;2.50;99.90;;;;;;5014571;28;20495;-63
2021/11/29 01:15:04;;;;;;;13.82;10.60;;;2.30;99.90;;;;;;5013008;28;20120;-63
2021/11/29 01:17:30;;;;;;;13.35;10.32;;;2.20;99.90;;;;;;5024533;28;20108;-64
2021/11/29 01:19:55;;;;;;;14.20;11.25;;;2.70;99.90;;;;;;5033806;28;20485;-63
2021/11/29 01:22:21;;;;;;;14.82;11.18;;;;;;;;;;5011032;28;20022;-63
2021/11/29 01:24:47;;;;;;;15.73;11.85;;;2.60;99.90;;;;;;5013182;28;20083;-62
2021/11/29 01:27:13;;;;;;;14.18;11.93;;;1.80;99.90;;;;;;5013637;28;20025;-63
2021/11/29 01:29:38;;;;;;;14.98;11.88;;;1.80;99.90;;;;;;5013923;28;20760;-63
2021/11/29 01:32:04;;;;;;;18.00;13.50;;;2.10;99.90;;;;;;5014032;28;20026;-64
2021/11/29 01:34:31;;;;;;;21.13;14.57;;;1.80;99.90;;;;;;4981402;28;20026;-63
2021/11/29 01:36:56;;;;;;;18.33;13.73;;;1.90;99.90;;;;;;5014016;28;20100;-63
2021/11/29 01:39:22;;;;;;;19.33;13.88;;;2.10;99.90;;;;;;5013320;28;20057;-61
2021/11/29 01:41:49;;;;;;;20.17;13.43;;;2.50;99.90;;;;;;5013537;28;20551;-62
2021/11/29 01:44:15;;;;;;;19.02;13.60;;;2.30;99.90;;;;;;5013410;28;20037;-63
2021/11/29 01:46:43;;;;;;;19.75;14.27;;;1.40;99.90;;;;;;5013013;28;20439;-62
2021/11/29 01:49:09;;;;;;;20.40;13.73;;;1.30;99.90;;;;;;5033475;28;20029;-62
2021/11/29 01:51:35;;;;;;;17.42;12.95;;;1.90;99.90;;;;;;5024370;28;20421;-63
2021/11/29 01:54:00;;;;;;;21.40;13.02;;;2.00;99.90;;;;;;5013610;28;20026;-62
2021/11/29 01:56:26;;;;;;;23.80;14.02;;;;;;;;;;5012380;28;20116;-63
2021/11/29 01:58:52;;;;;;;19.77;13.93;;;1.30;99.90;;;;;;5009228;28;20108;-61
2021/11/29 02:01:21;;;;;;;19.10;13.13;;;2.10;99.90;;;;;;5018139;28;20475;-60
2021/11/29 02:03:51;;;;;;;18.13;13.10;;;1.50;99.90;;;;;;5022269;28;20657;-62
2021/11/29 02:06:17;;;;;;;18.17;13.68;;;2.60;99.90;;;;;;5012677;28;20557;-62
2021/11/29 02:08:43;;;;;;;18.52;12.90;;;1.20;99.90;;;;;;5013374;28;20029;-63
2021/11/29 02:11:09;;;;;;;20.98;13.90;;;2.70;99.90;;;;;;5008651;28;20508;-62
2021/11/29 02:13:35;;;;;;;19.35;13.38;;;2.20;99.90;;;;;;4995760;28;20030;-63
2021/11/29 02:16:03;;;;;;;20.48;13.10;;;2.10;99.90;;;;;;5015766;28;20014;-62
2021/11/29 02:18:32;;;;;;;16.45;13.13;;;2.10;99.90;;;;;;5019209;28;20445;-61
2021/11/29 02:21:06;;;;;;;19.63;13.52;;;2.50;99.90;;;;;;5013075;28;20037;-61
2021/11/29 02:23:41;;;;;;;19.00;13.90;;;2.30;99.90;;;;;;5012544;28;20033;-60
2021/11/29 02:26:07;;;;;;;17.88;13.05;;;2.10;99.90;;;;;;5012714;28;20022;-60
2021/11/29 02:28:35;;;;;;;21.13;13.90;;;2.30;99.90;;;;;;5008970;28;20499;-62
2021/11/29 02:31:06;;;;;;;22.00;14.90;;;2.70;99.90;;;;;;5015668;28;20033;-63
2021/11/29 02:33:32;;;;;;;20.98;13.45;;;2.60;99.90;;;;;;5033804;28;20048;-58
2021/11/29 02:35:57;;;;;;;22.88;14.95;;;2.70;99.90;;;;;;5014930;28;20025;-59
2021/11/29 02:38:23;;;;;;;22.20;15.30;;;2.10;99.90;;;;;;5014126;28;20036;-60
2021/11/29 02:40:49;;;;;;;20.50;14.05;;;2.30;99.90;;;;;;5009705;28;20026;-62
2021/11/29 02:43:14;;;;;;;22.65;14.85;;;2.50;99.90;;;;;;4995430;28;20029;-62
2021/11/29 02:45:40;;;;;;;20.58;13.80;;;2.30;99.90;;;;;;5012671;28;20076;-61
2021/11/29 02:48:06;;;;;;;22.77;15.13;;;2.00;99.90;;;;;;5012071;28;20037;-64
2021/11/29 02:50:38;;;;;;;19.13;12.82;;;2.30;99.90;;;;;;5012455;28;20021;-62
2021/11/29 02:53:07;;;;;;;23.63;14.13;;;2.30;99.90;;;;;;5008476;28;20026;-63
2021/11/29 02:55:32;;;;;;;18.35;13.40;;;2.10;99.90;;;;;;5011886;28;20064;-61
2021/11/29 02:57:58;;;;;;;18.58;13.55;;;1.90;99.90;;;;;;5013908;28;20057;-62
2021/11/29 03:00:25;;;;;;;20.17;13.80;;;2.10;99.90;;;;;;5012954;28;20065;-60
2021/11/29 03:03:10;;;;;;;19.33;13.23;;;2.00;99.90;;;;;;5031161;28;20103;-63
2021/11/29 03:05:36;;;;;;;22.02;14.20;;;2.10;99.90;;;;;;5024664;28;20030;-63
2021/11/29 03:08:04;;;;;;;20.60;13.63;;;1.40;99.90;;;;;;5013412;28;20033;-63
2021/11/29 03:10:31;;;;;;;21.60;14.73;;;1.60;99.90;;;;;;5012645;28;20080;-62
2021/11/29 03:12:56;;;;;;;22.52;15.63;;;1.70;99.90;;;;;;5011486;28;20040;-64
2021/11/29 03:15:22;;;;;;;24.73;14.13;;;;;;;;;;5011619;28;20021;-62
2021/11/29 03:17:48;;;;;;;20.17;14.30;;;2.30;99.90;;;;;;5011224;28;20025;-61
2021/11/29 03:20:15;;;;;;;20.98;14.57;;;1.80;99.90;;;;;;5008523;28;20040;-62
2021/11/29 03:22:41;;;;;;;25.95;16.60;;;2.40;99.90;;;;;;5011780;28;20030;-61
2021/11/29 03:25:10;;;;;;;26.38;15.88;;;2.20;99.90;;;;;;5011009;28;20021;-64
2021/11/29 03:27:37;;;;;;;26.95;16.23;;;1.80;99.90;;;;;;5012429;28;20083;-63
2021/11/29 03:30:04;;;;;;;26.73;17.08;;;1.40;99.90;;;;;;5011785;28;20065;-62
2021/11/29 03:32:30;;;;;;;25.88;16.70;;;1.80;99.90;;;;;;5007355;28;20037;-62
2021/11/29 03:34:55;;;;;;;26.77;17.08;;;2.10;99.90;;;;;;5011798;28;20022;-62
2021/11/29 03:37:22;;;;;;;28.67;17.27;;;2.10;99.90;;;;;;5020801;28;20164;-61
2021/11/29 03:39:48;;;;;;;28.42;17.35;;;2.10;99.90;;;;;;5022059;28;20018;-61
2021/11/29 03:42:14;;;;;;;31.05;18.80;;;1.60;99.90;;;;;;5011944;28;20046;-60
2021/11/29 03:44:40;;;;;;;27.58;17.27;;;2.40;99.90;;;;;;5010304;28;20026;-61
2021/11/29 03:47:06;;;;;;;30.88;18.42;;;1.60;99.90;;;;;;5011682;28;20117;-61
2021/11/29 03:49:33;;;;;;;30.33;18.73;;;2.30;99.90;;;;;;5009005;28;20029;-61
2021/11/29 03:51:59;;;;;;;28.40;16.42;;;2.10;99.90;;;;;;5010392;28;20030;-61
2021/11/29 03:54:25;;;;;;;31.30;18.50;;;2.00;99.90;;;;;;5011207;28;20535;-61
2021/11/29 03:56:52;;;;;;;34.45;19.92;;;2.10;99.90;;;;;;5010340;28;20037;-61
2021/11/29 03:59:18;;;;;;;34.90;20.88;;;;;;;;;;5011363;28;20026;-64
2021/11/29 04:01:44;;;;;;;32.83;20.02;;;;;;;;;;4992945;28;20030;-62
2021/11/29 04:04:09;;;;;;;31.15;19.75;;;1.90;99.90;;;;;;5015142;28;20100;-60
2021/11/29 04:06:35;;;;;;;34.33;20.42;;;2.40;99.90;;;;;;4995882;28;20033;-62
2021/11/29 04:09:03;;;;;;;34.33;19.80;;;1.70;99.90;;;;;;5013974;28;20230;-62
2021/11/29 04:11:29;;;;;;;32.22;19.05;;;1.90;99.90;;;;;;5015106;28;20044;-58
2021/11/29 04:13:55;;;;;;;31.23;18.92;;;1.70;99.90;;;;;;5015845;28;20477;-60
2021/11/29 04:16:21;;;;;;;33.13;19.27;;;1.80;99.90;;;;;;4993040;28;20097;-62
2021/11/29 04:18:47;;;;;;;33.25;18.60;;;;;;;;;;5015501;28;20044;-59
2021/11/29 04:21:14;;;;;;;28.48;18.45;;;1.40;99.90;;;;;;5014507;28;20037;-60
2021/11/29 04:23:43;;;;;;;32.67;19.45;;;1.50;99.90;;;;;;5015404;28;20080;-59
2021/11/29 04:26:11;;;;;;;28.80;18.55;;;1.60;99.90;;;;;;5014356;28;20036;-60
2021/11/29 04:28:37;;;;;;;33.25;19.10;;;1.30;99.90;;;;;;5011059;28;20038;-59
2021/11/29 04:31:03;;;;;;;30.02;18.92;;;1.40;99.90;;;;;;5018523;28;20071;-62
2021/11/29 04:33:28;;;;;;;32.35;18.60;;;1.90;99.90;;;;;;5032885;28;20037;-63
2021/11/29 04:35:54;;;;;;;32.60;18.95;;;;;;;;;;5014377;28;20423;-64
2021/11/29 04:38:20;;;;;;;34.85;19.42;;;1.60;99.90;;;;;;5015240;28;20428;-60
2021/11/29 04:40:46;;;;;;;30.17;18.73;;;0.50;99.90;;;;;;5013743;28;20095;-62
2021/11/29 04:43:11;;;;;;;30.52;19.38;;;1.40;99.90;;;;;;5015000;28;20045;-62
2021/11/29 04:45:38;;;;;;;33.00;20.02;;;1.30;99.90;;;;;;5014250;28;20030;-62
2021/11/29 04:48:04;;;;;;;31.95;19.88;;;1.00;99.90;;;;;;5026489;28;20037;-63
2021/11/29 04:50:30;;;;;;;34.70;20.00;;;1.70;99.90;;;;;;5034694;28;20075;-60
2021/11/29 04:52:56;;;;;;;38.03;21.92;;;1.40;99.90;;;;;;5021832;28;20029;-58
2021/11/29 04:55:21;;;;;;;37.13;21.35;;;1.40;99.90;;;;;;5013897;28;20026;-63
2021/11/29 04:57:47;;;;;;;36.63;20.88;;;1.10;99.90;;;;;;5014808;28;20375;-62
2021/11/29 05:00:17;;;;;;;33.00;20.27;;;1.40;99.90;;;;;;5013582;28;20040;-62
2021/11/29 05:02:42;;;;;;;41.47;22.08;;;1.00;99.90;;;;;;5014675;28;20022;-61
2021/11/29 05:05:08;;;;;;;39.95;21.55;;;1.50;99.90;;;;;;5009841;28;20026;-63
2021/11/29 05:07:34;;;;;;;39.80;20.73;;;1.50;99.90;;;;;;5014449;28;20396;-62
2021/11/29 05:09:59;;;;;;;36.65;20.05;;;1.30;99.90;;;;;;5027843;28;20063;-61
2021/11/29 05:12:26;;;;;;;33.78;19.40;;;1.60;99.90;;;;;;5020917;28;20492;-63
2021/11/29 05:14:52;;;;;;;37.67;20.60;;;1.40;99.90;;;;;;5012992;28;20515;-63
2021/11/29 05:17:18;;;;;;;34.55;20.65;;;1.70;99.90;;;;;;5013500;28;20034;-63
2021/11/29 05:19:44;;;;;;;34.30;20.27;;;1.50;99.90;;;;;;5014107;28;20034;-63
2021/11/29 05:22:10;;;;;;;43.22;22.35;;;1.30;99.90;;;;;;4996586;28;20026;-64
2021/11/29 05:24:37;;;;;;;38.05;21.40;;;1.50;99.90;;;;;;5011840;28;20069;-68
2021/11/29 05:27:04;;;;;;;38.83;22.55;;;1.10;99.90;;;;;;5002463;28;20037;-68
2021/11/29 05:29:30;;;;;;;39.05;22.10;;;2.00;99.90;;;;;;5013152;28;20645;-65
2021/11/29 05:31:55;;;;;;;33.63;20.77;;;1.10;99.90;;;;;;5010115;28;20030;-68
2021/11/29 05:34:21;;;;;;;39.78;21.50;;;1.10;99.90;;;;;;5013261;28;20496;-66
2021/11/29 05:36:47;;;;;;;33.90;20.67;;;1.40;99.90;;;;;;5011975;28;20030;-68
2021/11/29 05:39:16;;;;;;;32.72;19.92;;;1.30;99.90;;;;;;5015685;28;20018;-68
2021/11/29 05:41:46;;;;;;;31.02;18.52;;;1.20;99.90;;;;;;5013451;28;20022;-67
2021/11/29 05:44:14;;;;;;;35.63;19.92;;;1.40;99.90;;;;;;5009995;28;20496;-69
2021/11/29 05:46:40;;;;;;;34.63;19.70;;;1.30;99.90;;;;;;5013943;28;20044;-68
2021/11/29 05:49:06;;;;;;;32.25;19.63;;;1.50;99.90;;;;;;5012724;28;20053;-68
2021/11/29 05:51:32;;;;;;;36.58;20.40;;;1.00;99.90;;;;;;5013486;28;20030;-68
2021/11/29 05:53:58;;;;;;;33.47;19.23;;;1.50;99.90;;;;;;5013872;28;20022;-66
2021/11/29 05:56:24;;;;;;;32.30;19.13;;;1.30;99.90;;;;;;5004730;28;20026;-68
2021/11/29 05:58:50;;;;;;;29.08;19.33;;;2.20;99.90;;;;;;5017799;28;20021;-68
2021/11/29 06:01:16;;;;;;;32.38;20.00;;;1.20;99.90;;;;;;5012882;28;20041;-68
2021/11/29 06:03:44;;;;;;;31.35;18.50;;;1.50;99.90;;;;;;5012438;28;20038;-66
2021/11/29 06:06:11;;;;;;;39.05;20.35;;;1.90;99.90;;;;;;5009730;28;20156;-67
2021/11/29 06:08:36;;;;;;;39.30;21.05;;;1.70;99.90;;;;;;4991768;28;20380;-70
2021/11/29 06:11:02;;;;;;;37.45;21.63;;;1.30;99.90;;;;;;5011897;28;20048;-68
2021/11/29 06:13:28;;;;;;;35.80;20.70;;;1.20;99.90;;;;;;5013108;28;20365;-68
2021/11/29 06:15:53;;;;;;;34.53;20.38;;;1.30;99.90;;;;;;5010932;28;20445;-68
2021/11/29 06:18:19;;;;;;;37.00;21.23;;;1.50;99.90;;;;;;5008573;28;20030;-68
2021/11/29 06:20:45;;;;;;;37.13;21.02;;;1.20;99.90;;;;;;5011737;28;20030;-68
2021/11/29 06:23:11;;;;;;;36.92;21.88;;;1.40;99.90;;;;;;5000126;28;20061;-67
2021/11/29 06:25:38;;;;;;;36.00;21.50;;;1.20;99.90;;;;;;5010516;28;20101;-67
2021/11/29 06:28:06;;;;;;;35.45;22.10;;;2.40;99.90;;;;;;5000777;28;20021;-69
2021/11/29 06:30:33;;;;;;;37.47;21.80;;;1.50;99.90;;;;;;5012184;28;20030;-68
2021/11/29 06:32:58;;;;;;;37.25;22.00;;;2.30;99.90;;;;;;5013405;28;20018;-69
2021/11/29 06:35:24;;;;;;;34.05;19.80;;;1.40;99.90;;;;;;5006143;28;20495;-69
2021/11/29 06:37:57;;;;;;;37.92;22.02;;;1.60;99.90;;;;;;5013065;28;20029;-69
2021/11/29 06:40:23;;;;;;;32.17;20.80;;;1.40;99.90;;;;;;5009925;28;20097;-69
2021/11/29 06:42:48;;;;;;;35.58;21.80;;;1.70;99.90;;;;;;5014159;28;20030;-69
2021/11/29 06:45:14;;;;;;;39.65;22.88;;;1.70;99.90;;;;;;5013338;28;20057;-69
2021/11/29 06:47:42;;;;;;;34.80;21.38;;;1.10;99.90;;;;;;5020583;28;20100;-69
2021/11/29 06:50:09;;;;;;;40.17;20.60;;;2.10;99.90;;;;;;5033307;28;20029;-69
2021/11/29 06:52:35;;;;;;;29.52;18.60;;;1.60;99.90;;;;;;5012924;28;20392;-69
2021/11/29 06:55:00;;;;;;;33.58;19.92;;;2.40;99.90;;;;;;5008997;28;20030;-69
2021/11/29 06:57:26;;;;;;;29.05;18.48;;;1.90;99.90;;;;;;5012717;28;20059;-71
2021/11/29 06:59:52;;;;;;;31.63;18.73;;;1.60;99.90;;;;;;5009982;28;20033;-67
2021/11/29 07:02:19;;;;;;;33.05;18.83;;;1.70;99.90;;;;;;5012588;28;20025;-68
2021/11/29 07:04:44;;;;;;;28.35;17.75;;;1.70;99.90;;;;;;5013886;28;20057;-67
2021/11/29 07:07:11;;;;;;;27.83;16.92;;;1.50;99.90;;;;;;5015104;28;20034;-69
2021/11/29 07:09:37;;;;;;;30.40;17.38;;;2.90;99.90;;;;;;5029419;28;20140;-68
2021/11/29 07:12:02;;;;;;;28.52;16.10;;;1.80;99.90;;;;;;5018590;28;20472;-67
2021/11/29 07:14:28;;;;;;;27.75;16.52;;;1.60;99.90;;;;;;5018433;28;20033;-67
2021/11/29 07:16:54;;;;;;;24.70;16.25;;;1.70;99.90;;;;;;5018661;28;20022;-67
2021/11/29 07:19:20;;;;;;;24.85;15.02;;;2.90;99.90;;;;;;5018820;28;20400;-67
2021/11/29 07:21:46;;;;;;;27.50;16.17;;;1.50;99.90;;;;;;5019396;28;20081;-68
2021/11/29 07:24:12;;;;;;;22.38;13.88;;;1.60;99.90;;;;;;5021424;28;20089;-63
2021/11/29 07:26:40;;;;;;;23.77;13.70;;;1.60;99.90;;;;;;5014634;28;20026;-61
2021/11/29 07:29:06;;;;;;;19.95;11.60;;;1.60;99.90;;;;;;5002015;28;20121;-62
2021/11/29 07:31:33;;;;;;;21.92;11.60;;;1.50;99.90;;;;;;5021376;28;20069;-63
2021/11/29 07:33:59;;;;;;;22.90;11.77;;;1.40;99.90;;;;;;5017220;28;20038;-63
2021/11/29 07:36:24;;;;;;;23.85;13.20;;;1.60;99.90;;;;;;5015080;28;20484;-62
2021/11/29 07:38:50;;;;;;;23.42;11.98;;;2.00;99.90;;;;;;5015774;28;20453;-61
2021/11/29 07:41:17;;;;;;;17.98;12.10;;;2.60;99.90;;;;;;5016359;28;20030;-63
2021/11/29 07:43:43;;;;;;;20.42;12.57;;;;;;;;;;5039020;23;20089;-67
2021/11/29 07:46:08;;;;;;;29.40;12.88;;;2.00;99.90;;;;;;5046811;28;20486;-69
2021/11/29 07:48:34;;;;;;;25.67;15.02;;;2.10;99.90;;;;;;5050949;28;20036;-68
2021/11/29 07:51:00;;;;;;;25.10;14.10;;;2.60;99.90;;;;;;5050065;28;20017;-68
2021/11/29 07:53:26;;;;;;;22.58;13.23;;;2.00;99.90;;;;;;5051734;28;20474;-68
2021/11/29 07:55:53;;;;;;;29.25;14.45;;;2.70;99.90;;;;;;5031770;28;20053;-67
2021/11/29 07:58:20;;;;;;;15.88;10.18;;;2.70;99.90;;;;;;5027382;28;20360;-72
2021/11/29 08:00:47;;;;;;;19.42;11.68;;;2.80;99.90;;;;;;5031551;28;20024;-68
2021/11/29 08:03:12;;;;;;;18.67;9.93;;;2.80;99.90;;;;;;5030955;28;20029;-68
2021/11/29 08:05:39;;;;;;;15.82;9.98;;;2.80;99.90;;;;;;5030350;28;20075;-68
2021/11/29 08:08:06;;;;;;;14.65;9.57;;;2.20;99.90;;;;;;5030867;28;20128;-67
2021/11/29 08:10:34;;;;;;;19.25;9.73;;;1.90;99.90;;;;;;5037105;28;20033;-69
2021/11/29 08:13:02;;;;;;;18.67;10.98;;;2.20;99.90;;;;;;5051445;28;20449;-67
2021/11/29 08:15:28;;;;;;;18.52;9.57;;;2.30;99.90;;;;;;5049334;28;20021;-67
2021/11/29 08:17:54;;;;;;;17.95;10.35;;;3.00;99.90;;;;;;5050934;28;20021;-67
2021/11/29 08:20:23;;;;;;;14.20;8.20;;;2.00;99.90;;;;;;5050941;28;20023;-69
2021/11/29 08:22:49;;;;;;;10.35;7.57;;;2.20;99.90;;;;;;5049800;28;20029;-69
2021/11/29 08:25:15;;;;;;;13.20;8.82;;;2.80;99.90;;;;;;5050622;28;20086;-69
2021/11/29 08:27:41;;;;;;;12.23;7.97;;;2.30;99.90;;;;;;5046621;28;20026;-69
2021/11/29 08:30:09;;;;;;;15.38;9.05;;;2.00;99.90;;;;;;5051014;28;20427;-68
2021/11/29 08:32:35;;;;;;;18.33;8.82;;;2.50;99.90;;;;;;5050940;28;20079;-68
2021/11/29 08:35:01;;;;;;;19.52;9.80;;;;;;;;;;5048920;28;20031;-67
2021/11/29 08:37:27;;;;;;;18.63;9.98;;;2.30;99.90;;;;;;5050968;28;20021;-68
2021/11/29 08:39:53;;;;;;;21.13;10.60;;;2.20;99.90;;;;;;5028371;28;20049;-69
2021/11/29 08:42:18;;;;;;;17.45;10.30;;;3.10;99.90;;;;;;5011212;28;20029;-69
2021/11/29 08:44:44;;;;;;;16.23;9.90;;;2.50;99.90;;;;;;5010142;28;20052;-69
2021/11/29 08:47:10;;;;;;;16.85;10.35;;;2.30;99.90;;;;;;5045881;28;20037;-69
2021/11/29 08:49:35;;;;;;;16.45;10.27;;;2.10;99.90;;;;;;5033520;28;20136;-67
2021/11/29 08:52:02;;;;;;;14.75;10.10;;;2.20;99.90;;;;;;5037840;28;20037;-69
2021/11/29 08:54:28;;;;;;;16.25;10.52;;;2.10;99.90;;;;;;5053542;28;20040;-68
2021/11/29 08:56:53;;;;;;;14.02;9.73;;;2.70;99.90;;;;;;5034963;28;20033;-68
2021/11/29 08:59:21;;;;;;;14.63;9.98;;;2.10;99.90;;;;;;5054234;28;20032;-68
2021/11/29 09:01:49;;;;;;;19.20;9.20;;;2.20;99.90;;;;;;5054157;28;20024;-68
2021/11/29 09:04:15;;;;;;;19.00;9.85;;;2.40;99.90;;;;;;5045681;28;20048;-69
2021/11/29 09:06:41;;;;;;;16.48;10.40;;;2.80;99.90;;;;;;5053812;28;20029;-68
2021/11/29 09:09:07;;;;;;;15.75;8.27;;;3.00;99.90;;;;;;5049384;28;20116;-68
2021/11/29 09:11:33;;;;;;;14.48;7.70;;;3.30;99.90;;;;;;5054248;28;20478;-68
2021/11/29 09:13:58;;;;;;;15.10;7.53;;;3.80;99.90;;;;;;5054081;28;20029;-67
2021/11/29 09:16:25;;;;;;;12.10;8.02;;;4.80;99.90;;;;;;5051381;28;20021;-67
2021/11/29 09:18:51;;;;;;;13.35;8.07;;;4.00;99.90;;;;;;5054011;28;20025;-68
2021/11/29 09:21:19;;;;;;;8.88;6.40;;;4.80;99.90;;;;;;5052656;28;20075;-68
2021/11/29 09:23:46;;;;;;;7.75;6.72;;;4.60;99.90;;;;;;5053919;28;20067;-69
2021/11/29 09:26:13;;;;;;;15.43;6.65;;;6.30;99.90;;;;;;5053593;28;20029;-68
2021/11/29 09:28:39;;;;;;;10.18;5.65;;;6.80;99.90;;;;;;5045552;28;20332;-69
2021/11/29 09:31:05;;;;;;;7.53;5.32;;;7.50;99.90;;;;;;5053285;28;20120;-67
2021/11/29 09:33:31;;;;;;;8.77;4.90;;;8.00;99.90;;;;;;5052143;28;20574;-70
2021/11/29 09:35:57;;;;;;;9.52;4.45;;;9.30;99.90;;;;;;5053165;28;20087;-67
2021/11/29 09:38:23;;;;;;;6.88;3.83;;;9.50;99.90;;;;;;5052926;28;20025;-68
2021/11/29 09:40:49;;;;;;;6.18;3.92;;;10.20;99.90;;;;;;5043158;28;20033;-69
2021/11/29 09:43:17;;;;;;;4.70;4.13;;;10.40;99.90;;;;;;5050317;28;20033;-69
2021/11/29 09:45:45;;;;;;;9.85;4.35;;;10.90;99.90;;;;;;5040302;28;20076;-68
2021/11/29 09:48:12;;;;;;;4.40;3.80;;;10.70;99.90;;;;;;5053453;28;20531;-68
2021/11/29 09:50:42;;;;;;;7.85;3.65;;;11.00;99.90;;;;;;5053703;28;20406;-68
2021/11/29 09:53:10;;;;;;;7.68;4.45;;;10.20;99.90;;;;;;5026198;28;20054;-68
2021/11/29 09:55:36;;;;;;;8.77;4.32;;;10.30;99.90;;;;;;5052621;28;20025;-68
2021/11/29 09:58:04;;;;;;;9.65;4.35;;;10.60;99.90;;;;;;5042815;28;20029;-68
2021/11/29 10:00:34;;;;;;;6.75;4.72;;;10.90;99.90;;;;;;5053444;28;20032;-69
2021/11/29 10:03:01;;;;;;;7.88;4.57;;;10.50;99.90;;;;;;5051253;28;20078;-68
2021/11/29 10:05:27;;;;;;;6.43;4.28;;;10.50;99.90;;;;;;5047109;28;20026;-68
2021/11/29 10:07:54;;;;;;;9.60;4.25;;;10.90;99.90;;;;;;5056142;28;20067;-68
2021/11/29 10:10:28;;;;;;;11.05;4.43;;;9.80;99.90;;;;;;5025589;28;20076;-68
2021/11/29 10:13:02;;;;;;;8.27;4.85;;;9.60;99.90;;;;;;5021165;28;20118;-68
2021/11/29 10:15:36;;;;;;;9.63;4.40;;;8.80;99.90;;;;;;5021123;28;20035;-68
2021/11/29 10:18:16;;;;;;;8.00;4.38;;;8.40;99.90;;;;;;5053440;28;20376;-68
2021/11/29 10:20:54;;;;;;;5.78;4.32;;;7.80;99.90;;;;;;5053155;28;20048;-68
2021/11/29 10:23:23;;;;;;;14.60;5.22;;;9.20;99.90;;;;;;5045155;28;20032;-68
2021/11/29 10:25:49;;;;;;;7.30;4.43;;;7.90;99.90;;;;;;5039550;28;20024;-69
2021/11/29 10:28:28;;;;;;;5.97;3.83;;;8.60;99.90;;;;;;5040541;28;20037;-69
2021/11/29 10:31:11;;;;;;;6.97;4.13;;;8.50;99.90;;;;;;5052954;28;20017;-68
2021/11/29 10:33:56;;;;;;;5.95;3.85;;;9.70;99.90;;;;;;5050962;28;20551;-67
2021/11/29 10:36:24;;;;;;;5.97;3.55;;;10.40;99.90;;;;;;5051914;28;20565;-68
2021/11/29 10:38:54;;;;;;;6.32;4.03;;;10.70;99.30;;;;;;5037678;28;20085;-68
2021/11/29 10:41:22;;;;;;;8.20;4.00;;;10.80;98.90;;;;;;5050048;28;20033;-67
2021/11/29 10:43:48;;;;;;;5.53;3.90;;;10.90;98.70;;;;;;5052204;28;20029;-68
2021/11/29 10:46:22;;;;;;;5.53;3.88;;;9.60;99.90;;;;;;5043253;28;20041;-68
2021/11/29 10:48:48;;;;;;;5.97;3.85;;;9.70;99.90;;;;;;5033805;28;20369;-69
2021/11/29 10:51:16;;;;;;;8.23;3.22;;;9.20;99.90;;;;;;5034072;28;20665;-68
2021/11/29 10:53:54;;;;;;;6.13;3.28;;;11.00;99.80;;;;;;5051963;28;20105;-69
2021/11/29 10:56:22;;;;;;;4.95;3.28;;;11.30;99.90;;;;;;5051242;28;20095;-68
2021/11/29 10:58:49;;;;;;;5.75;3.45;;;11.30;98.90;;;;;;5043739;28;20098;-68
2021/11/29 11:01:17;;;;;;;7.35;3.40;;;10.30;99.90;;;;;;5051968;28;20116;-68
2021/11/29 11:03:52;;;;;;;7.65;3.50;;;8.30;99.90;;;;;;5050226;28;20025;-68
2021/11/29 11:06:45;;;;;;;10.43;3.25;;;7.80;99.90;;;;;;5051322;28;20033;-68
2021/11/29 11:09:15;;;;;;;;;;;8.00;99.90;;;;;;5041203;28;20451;-68
2021/11/29 11:11:55;;;;;;;5.00;3.17;;;7.20;99.90;;;;;;5032847;28;19952;-68
2021/11/29 11:14:38;;;;;;;3.88;2.97;;;7.00;99.90;;;;;;5051291;28;20071;-68
2021/11/29 11:17:12;;;;;;;3.72;2.90;;;6.70;99.90;;;;;;5032046;28;20108;-69
2021/11/29 11:19:47;;;;;;;8.30;2.60;;;6.20;99.90;;;;;;5051564;28;20025;-69
2021/11/29 11:22:14;;;;;;;6.80;3.00;;;5.80;99.90;;;;;;5043716;28;20025;-69
2021/11/29 11:24:43;;;;;;;4.45;2.47;;;6.40;99.90;;;;;;5051006;28;20031;-69
2021/11/29 11:27:10;;;;;;;5.63;2.55;;;5.70;99.90;;;;;;5050257;28;20037;-69
2021/11/29 11:29:38;;;;;;;3.80;2.60;;;6.20;99.90;;;;;;5051371;28;20027;-69
2021/11/29 11:32:15;;;;;;;5.88;2.65;;;5.00;99.90;;;;;;5051642;28;20029;-68
2021/11/29 11:34:44;;;;;;;4.47;3.08;;;5.60;99.90;;;;;;5042689;28;20037;-67
2021/11/29 11:37:11;;;;;;;3.63;2.50;;;5.60;99.90;;;;;;5051634;28;20028;-69
2021/11/29 11:39:38;;;;;;;5.75;2.72;;;6.40;99.90;;;;;;5044183;28;20471;-69
2021/11/29 11:42:03;;;;;;;6.43;2.90;;;7.10;99.90;;;;;;5035824;28;20029;-69
2021/11/29 11:44:32;;;;;;;7.35;2.38;;;7.20;99.90;;;;;;5030726;28;20056;-68
2021/11/29 11:47:00;;;;;;;4.70;2.72;;;7.00;99.90;;;;;;5046050;28;20588;-68
2021/11/29 11:49:27;;;;;;;6.40;2.75;;;8.00;99.90;;;;;;5050865;28;20055;-69
2021/11/29 11:51:53;;;;;;;5.68;2.67;;;8.30;99.90;;;;;;5036073;28;20026;-69
2021/11/29 11:54:18;;;;;;;8.60;3.30;;;8.00;99.90;;;;;;5047449;28;20089;-69
2021/11/29 11:56:44;;;;;;;8.57;2.83;;;7.90;99.90;;;;;;5051023;28;20540;-68
2021/11/29 11:59:16;;;;;;;9.75;2.60;;;8.00;99.90;;;;;;5013650;28;20416;-68
2021/11/29 12:01:48;;;;;;;5.25;2.72;;;6.50;99.90;;;;;;5011587;28;20101;-69
2021/11/29 12:04:16;;;;;;;5.35;3.13;;;5.90;99.90;;;;;;5031388;28;20111;-68
2021/11/29 12:06:44;;;;;;;6.18;2.67;;;6.30;99.90;;;;;;5051103;28;20523;-68
2021/11/29 12:09:13;;;;;;;5.18;2.17;;;6.20;99.90;;;;;;5042457;28;20021;-67
2021/11/29 12:11:42;;;;;;;3.83;2.60;;;6.10;99.90;;;;;;5044778;28;20021;-68
2021/11/29 12:14:19;;;;;;;3.15;2.55;;;6.30;99.90;;;;;;5051121;28;20032;-68
2021/11/29 12:16:59;;;;;;;8.77;2.40;;;6.80;99.90;;;;;;5049606;28;20372;-69
2021/11/29 12:19:25;;;;;;;10.55;2.55;;;7.20;99.90;;;;;;5051148;28;20033;-68
2021/11/29 12:21:52;;;;;;;6.97;2.85;;;7.10;99.90;;;;;;5043071;28;20463;-68
2021/11/29 12:24:21;;;;;;;8.85;2.67;;;7.20;99.90;;;;;;5013765;28;20076;-69
2021/11/29 12:26:47;;;;;;;11.50;2.85;;;7.40;99.90;;;;;;5015402;28;20026;-69
2021/11/29 12:29:22;;;;;;;3.92;2.13;;;7.40;99.90;;;;;;5042384;28;20400;-69
2021/11/29 12:32:04;;;;;;;4.75;2.10;;;7.40;99.90;;;;;;5037236;28;20025;-69
2021/11/29 12:34:48;;;;;;;5.03;1.95;;;5.90;99.90;;;;;;5044292;28;20116;-69
2021/11/29 12:37:18;;;;;;;3.50;2.10;;;6.20;99.90;;;;;;5044089;28;20033;-68
2021/11/29 12:39:44;;;;;;;6.70;2.28;;;6.30;99.90;;;;;;5034666;28;20033;-68
2021/11/29 12:42:19;;;;;;;5.50;2.20;;;5.80;99.90;;;;;;5055057;28;20102;-69
2021/11/29 12:44:45;;;;;;;4.43;2.75;;;4.90;99.90;;;;;;5053892;28;20407;-68
2021/11/29 12:47:23;;;;;;;7.25;2.65;;;5.30;99.90;;;;;;5041652;28;20021;-68